ESGJ/JKG METAR and TAF weather

Enter ICAO airport designator
Station Type Date Time Source
ESGJ METAR 2022/06/27 08:50 UTC NOAA

ESGJ 270850Z 12007KT CAVOK 28/16 Q1017


Station Type Date Time Source
ESGJ Decoded METAR 2022/06/27 08:50 UTC NOAA

Jonkoping Flygplats, Sweden (ESGJ) 57-46N 014-05E 232M
Jun 27, 2022 - 04:50 AM EDT / 2022.06.27 0850 UTC
Wind: from the ESE (120 degrees) at 8 MPH (7 KT):0
Visibility: greater than 7 mile(s):0
Temperature: 82 F (28 C)
Dew Point: 60 F (16 C)
Relative Humidity: 48%
Pressure (altimeter): 30.03 in. Hg (1017 hPa)
ob: ESGJ 270850Z 12007KT CAVOK 28/16 Q1017
cycle: 9

Station Type Date Time Source
ESGJ TAF 2015/05/01 23:06 UTC NOAA

TAF TAF ESGJ 302359Z 3023/0101 CNL

Example: see airport list